Time;durP1;ratioP1;P1;durP2;ratioP2;P2;SDS_P1;SDS_P2;PMS_P1;PMS_P2;Temp;Humidity;BMP_temperature;BMP_pressure;BME280_temperature;BME280_humidity;BME280_pressure;Samples;Min_cycle;Max_cycle;Signal;HPM_P1;HPM_P2
2022/03/19 00:00:47;;;;;;;10.52;3.05;;;;;;;;;;5072065;28;20044;-70
2022/03/19 00:03:15;;;;;;;14.25;3.58;;;;;;;;;;5071225;28;20044;-70
2022/03/19 00:05:41;;;;;;;17.08;3.25;;;;;;;;;;5071822;28;20048;-70
2022/03/19 00:08:07;;;;;;;19.67;3.45;;;;;;;;;;5071844;28;20131;-70
2022/03/19 00:10:33;;;;;;;14.63;3.20;;;;;;;;;;5071283;28;20083;-70
2022/03/19 00:12:59;;;;;;;18.05;3.08;;;;;;;;;;5071995;28;20134;-70
2022/03/19 00:15:25;;;;;;;14.23;3.00;;;;;;;;;;5070481;28;20041;-70
2022/03/19 00:17:57;;;;;;;14.82;2.78;;;;;;;;;;5071089;28;20036;-70
2022/03/19 00:20:23;;;;;;;13.47;2.90;;;;;;;;;;5071904;28;20434;-70
2022/03/19 00:22:49;;;;;;;13.25;3.20;;;;;;;;;;5071618;28;20075;-70
2022/03/19 00:25:15;;;;;;;14.13;3.33;;;;;;;;;;5071017;28;20044;-70
2022/03/19 00:27:41;;;;;;;12.35;2.85;;;;;;;;;;5071363;28;20037;-70
2022/03/19 00:30:08;;;;;;;17.52;3.92;;;;;;;;;;5071308;28;20059;-70
2022/03/19 00:32:34;;;;;;;16.05;3.47;;;;;;;;;;5103300;28;20619;-70
2022/03/19 00:35:02;;;;;;;14.27;3.58;;;;;;;;;;5087017;28;20090;-70
2022/03/19 00:37:28;;;;;;;18.73;3.35;;;;;;;;;;5103799;28;20044;-70
2022/03/19 00:39:54;;;;;;;16.73;3.17;;;;;;;;;;5071034;28;20559;-70
2022/03/19 00:42:20;;;;;;;22.05;3.42;;;;;;;;;;5071346;28;20056;-70
2022/03/19 00:44:47;;;;;;;15.77;3.05;;;;;;;;;;5071507;28;20634;-70
2022/03/19 00:47:13;;;;;;;15.07;3.63;;;;;;;;;;5070851;28;20115;-70
2022/03/19 00:49:39;;;;;;;13.25;2.95;;;;;;;;;;5071395;28;20044;-70
2022/03/19 00:52:06;;;;;;;16.67;2.67;;;;;;;;;;5073790;28;20033;-69
2022/03/19 00:54:32;;;;;;;16.33;3.35;;;;;;;;;;5075100;28;20082;-69
2022/03/19 00:56:58;;;;;;;9.40;2.63;;;;;;;;;;5075790;28;20041;-70
2022/03/19 00:59:24;;;;;;;15.77;3.20;;;;;;;;;;5107902;28;20178;-70
2022/03/19 01:01:50;;;;;;;15.30;3.42;;;;;;;;;;5074868;28;20041;-70
2022/03/19 01:04:16;;;;;;;13.60;2.78;;;;;;;;;;5075721;28;20040;-70
2022/03/19 01:06:42;;;;;;;12.82;3.20;;;;;;;;;;5075210;28;20036;-70
2022/03/19 01:09:08;;;;;;;14.18;3.50;;;;;;;;;;5074690;28;20047;-70
2022/03/19 01:11:34;;;;;;;15.43;3.42;;;;;;;;;;5075303;28;19921;-70
2022/03/19 01:14:00;;;;;;;13.77;3.42;;;;;;;;;;5075012;28;20049;-70
2022/03/19 01:16:27;;;;;;;16.02;3.50;;;;;;;;;;5074460;28;20127;-70
2022/03/19 01:18:53;;;;;;;16.58;3.45;;;;;;;;;;5075013;28;20037;-70
2022/03/19 01:21:19;;;;;;;17.17;3.38;;;;;;;;;;5075095;28;20495;-70
2022/03/19 01:23:46;;;;;;;16.45;3.15;;;;;;;;;;5074168;28;20037;-70
2022/03/19 01:26:12;;;;;;;17.83;3.83;;;;;;;;;;5074732;28;20036;-70
2022/03/19 01:28:38;;;;;;;16.08;3.70;;;;;;;;;;5074774;28;20419;-70
2022/03/19 01:31:04;;;;;;;13.38;3.40;;;;;;;;;;5073813;28;20084;-70
2022/03/19 01:33:30;;;;;;;15.32;3.58;;;;;;;;;;5074540;28;20048;-70
2022/03/19 01:35:56;;;;;;;15.60;3.20;;;;;;;;;;5074735;28;20493;-70
2022/03/19 01:38:22;;;;;;;12.98;3.47;;;;;;;;;;5074207;28;20044;-70
2022/03/19 01:40:48;;;;;;;16.92;3.35;;;;;;;;;;5074720;28;20044;-70
2022/03/19 01:43:14;;;;;;;16.10;3.25;;;;;;;;;;5074493;28;20040;-70
2022/03/19 01:45:40;;;;;;;10.88;3.42;;;;;;;;;;5072927;28;20178;-70
2022/03/19 01:48:07;;;;;;;15.80;2.90;;;;;;;;;;5073616;28;20055;-70
2022/03/19 01:50:33;;;;;;;16.17;3.60;;;;;;;;;;5074476;28;20044;-70
2022/03/19 01:52:59;;;;;;;12.90;3.05;;;;;;;;;;5073514;28;20501;-70
2022/03/19 01:55:26;;;;;;;13.30;3.40;;;;;;;;;;5073718;28;20128;-70
2022/03/19 01:57:53;;;;;;;19.50;3.75;;;;;;;;;;5074385;28;20040;-70
2022/03/19 02:00:23;;;;;;;10.63;3.08;;;;;;;;;;5074351;28;20082;-70
2022/03/19 02:02:50;;;;;;;15.30;3.45;;;;;;;;;;5072091;28;20053;-70
2022/03/19 02:05:17;;;;;;;17.83;3.72;;;;;;;;;;5074440;28;20068;-70
2022/03/19 02:07:44;;;;;;;15.13;3.58;;;;;;;;;;5074392;28;20043;-70
2022/03/19 02:10:12;;;;;;;12.65;3.33;;;;;;;;;;5073317;28;20048;-70
2022/03/19 02:12:39;;;;;;;16.65;4.32;;;;;;;;;;5074118;28;20074;-70
2022/03/19 02:15:06;;;;;;;12.05;2.97;;;;;;;;;;5074100;28;20582;-70
2022/03/19 02:17:32;;;;;;;16.58;3.35;;;;;;;;;;5073415;28;20513;-70
2022/03/19 02:19:58;;;;;;;17.92;3.60;;;;;;;;;;5074132;28;20036;-70
2022/03/19 02:22:26;;;;;;;14.82;3.05;;;;;;;;;;5073912;28;20110;-70
2022/03/19 02:27:37;;;;;;;12.02;3.25;;;;;;;;;;5073628;28;20470;-70
2022/03/19 02:30:04;;;;;;;11.98;3.17;;;;;;;;;;5073308;28;20110;-70
2022/03/19 02:32:31;;;;;;;10.65;3.90;;;;;;;;;;5105518;28;20074;-70
2022/03/19 02:34:57;;;;;;;18.48;4.07;;;;;;;;;;5073581;28;20387;-70
2022/03/19 02:37:23;;;;;;;10.75;3.50;;;;;;;;;;5073349;28;20041;-70
2022/03/19 02:39:49;;;;;;;21.52;3.63;;;;;;;;;;5073099;28;20525;-70
2022/03/19 02:42:16;;;;;;;16.10;3.90;;;;;;;;;;5073569;28;20479;-70
2022/03/19 02:44:42;;;;;;;13.70;3.20;;;;;;;;;;5106095;28;20048;-70
2022/03/19 02:47:09;;;;;;;16.92;3.80;;;;;;;;;;5072685;28;20040;-70
2022/03/19 02:49:35;;;;;;;16.17;3.53;;;;;;;;;;5073195;28;20101;-70
2022/03/19 02:52:01;;;;;;;12.07;3.50;;;;;;;;;;5073123;28;20047;-70
2022/03/19 02:54:29;;;;;;;11.68;3.20;;;;;;;;;;5071353;28;20494;-70
2022/03/19 02:56:55;;;;;;;14.85;3.85;;;;;;;;;;5073216;28;20542;-70
2022/03/19 02:59:21;;;;;;;13.27;3.17;;;;;;;;;;5073430;28;20380;-70
2022/03/19 03:01:57;;;;;;;12.73;3.88;;;;;;;;;;5072448;28;20041;-70
2022/03/19 03:04:23;;;;;;;13.10;3.45;;;;;;;;;;5105789;28;20041;-70
2022/03/19 03:06:51;;;;;;;14.35;3.20;;;;;;;;;;5073158;28;20383;-70
2022/03/19 03:09:20;;;;;;;12.82;3.55;;;;;;;;;;5072263;28;20032;-70
2022/03/19 03:11:46;;;;;;;12.90;3.67;;;;;;;;;;5105629;28;20044;-70
2022/03/19 03:14:13;;;;;;;15.35;4.07;;;;;;;;;;5072260;28;20471;-70
2022/03/19 03:16:40;;;;;;;15.45;3.58;;;;;;;;;;5072188;28;20040;-70
2022/03/19 03:19:07;;;;;;;8.85;3.40;;;;;;;;;;5072897;28;20391;-70
2022/03/19 03:21:34;;;;;;;11.40;3.42;;;;;;;;;;5072860;28;20122;-70
2022/03/19 03:24:01;;;;;;;12.52;4.07;;;;;;;;;;5072132;28;20538;-70
2022/03/19 03:26:27;;;;;;;21.00;3.58;;;;;;;;;;5062281;28;20041;-70
2022/03/19 03:28:54;;;;;;;20.08;3.65;;;;;;;;;;5052306;28;20052;-70
2022/03/19 03:31:20;;;;;;;14.27;3.35;;;;;;;;;;5051535;28;20047;-70
2022/03/19 03:33:46;;;;;;;10.07;3.40;;;;;;;;;;5051108;28;20051;-70
2022/03/19 03:36:12;;;;;;;10.70;3.70;;;;;;;;;;5052325;28;20048;-70
2022/03/19 03:38:39;;;;;;;17.67;4.03;;;;;;;;;;5050610;28;20041;-70
2022/03/19 03:41:05;;;;;;;19.40;3.95;;;;;;;;;;5052731;28;20128;-70
2022/03/19 03:43:32;;;;;;;15.35;3.78;;;;;;;;;;5052492;28;20044;-70
2022/03/19 03:45:58;;;;;;;12.95;3.90;;;;;;;;;;5051667;28;20127;-70
2022/03/19 03:48:24;;;;;;;14.85;4.07;;;;;;;;;;5052369;28;20045;-70
2022/03/19 03:50:52;;;;;;;17.02;4.28;;;;;;;;;;5050768;28;20442;-70
2022/03/19 03:53:18;;;;;;;11.50;4.05;;;;;;;;;;5051744;28;20614;-70
2022/03/19 03:55:45;;;;;;;13.13;4.18;;;;;;;;;;5051867;28;20040;-70
2022/03/19 03:58:11;;;;;;;12.38;4.47;;;;;;;;;;5052157;28;20075;-70
2022/03/19 04:00:37;;;;;;;12.55;3.88;;;;;;;;;;5051209;28;20072;-70
2022/03/19 04:03:06;;;;;;;18.83;4.40;;;;;;;;;;5052297;28;20041;-70
2022/03/19 04:05:36;;;;;;;18.95;5.05;;;;;;;;;;5052124;28;20051;-70
2022/03/19 04:08:03;;;;;;;12.90;3.92;;;;;;;;;;5051557;28;20052;-70
2022/03/19 04:10:30;;;;;;;16.15;4.38;;;;;;;;;;5051584;28;20076;-70
2022/03/19 04:12:56;;;;;;;17.80;4.00;;;;;;;;;;5050556;28;20047;-70
2022/03/19 04:15:22;;;;;;;14.90;4.18;;;;;;;;;;5051497;28;20044;-70
2022/03/19 04:17:48;;;;;;;12.63;4.20;;;;;;;;;;5051946;28;20698;-70
2022/03/19 04:20:15;;;;;;;15.85;4.00;;;;;;;;;;5050397;28;20044;-70
2022/03/19 04:22:42;;;;;;;12.05;3.92;;;;;;;;;;5051223;28;20048;-70
2022/03/19 04:25:15;;;;;;;14.07;4.30;;;;;;;;;;5050253;28;20048;-70
2022/03/19 04:27:42;;;;;;;9.73;3.42;;;;;;;;;;5050006;28;20071;-70
2022/03/19 04:30:11;;;;;;;12.10;4.00;;;;;;;;;;5050565;28;20049;-70
2022/03/19 04:32:48;;;;;;;17.73;4.68;;;;;;;;;;5051462;28;20140;-70
2022/03/19 04:38:00;;;;;;;13.90;3.83;;;;;;;;;;5083333;28;20396;-70
2022/03/19 04:40:26;;;;;;;12.00;4.18;;;;;;;;;;5051785;28;20041;-70
2022/03/19 04:42:52;;;;;;;17.17;3.97;;;;;;;;;;5050318;28;20087;-70
2022/03/19 04:45:19;;;;;;;15.52;4.00;;;;;;;;;;5049987;28;20045;-70
2022/03/19 04:47:45;;;;;;;12.85;4.32;;;;;;;;;;5050263;28;20052;-70
2022/03/19 04:50:11;;;;;;;13.38;3.90;;;;;;;;;;5050103;28;20053;-70
2022/03/19 04:52:37;;;;;;;12.23;4.07;;;;;;;;;;5050871;28;20087;-70
2022/03/19 04:55:04;;;;;;;12.20;4.30;;;;;;;;;;5051533;28;20123;-70
2022/03/19 04:57:31;;;;;;;15.48;3.83;;;;;;;;;;5051273;28;20126;-70
2022/03/19 04:59:58;;;;;;;9.50;3.92;;;;;;;;;;5050916;28;20767;-70
2022/03/19 05:02:24;;;;;;;13.85;4.50;;;;;;;;;;5051204;28;20056;-70
2022/03/19 05:04:54;;;;;;;12.55;4.40;;;;;;;;;;5051277;28;20132;-70
2022/03/19 05:07:20;;;;;;;10.07;3.65;;;;;;;;;;5050762;28;20480;-70
2022/03/19 05:12:32;;;;;;;12.15;4.00;;;;;;;;;;5051465;28;20033;-70
2022/03/19 05:14:58;;;;;;;18.90;4.03;;;;;;;;;;5050760;28;20045;-70
2022/03/19 05:17:24;;;;;;;13.30;4.10;;;;;;;;;;5051414;28;20076;-70
2022/03/19 05:19:51;;;;;;;15.68;4.38;;;;;;;;;;5050007;28;20060;-70
2022/03/19 05:22:17;;;;;;;13.27;3.88;;;;;;;;;;5050456;28;20479;-70
2022/03/19 05:24:43;;;;;;;11.38;3.95;;;;;;;;;;5049727;28;20391;-70
2022/03/19 05:27:11;;;;;;;12.60;3.67;;;;;;;;;;5067200;28;20047;-70
2022/03/19 05:29:37;;;;;;;17.67;4.43;;;;;;;;;;5070323;28;20060;-70
2022/03/19 05:32:04;;;;;;;11.20;3.35;;;;;;;;;;5071024;28;20048;-70
2022/03/19 05:34:31;;;;;;;16.88;4.07;;;;;;;;;;5069642;28;20407;-70
2022/03/19 05:36:58;;;;;;;10.70;4.07;;;;;;;;;;5070672;28;20115;-70
2022/03/19 05:39:24;;;;;;;13.50;3.70;;;;;;;;;;5074745;28;20059;-70
2022/03/19 05:41:50;;;;;;;17.05;4.10;;;;;;;;;;5073582;28;20040;-70
2022/03/19 05:44:16;;;;;;;14.73;3.92;;;;;;;;;;5074032;28;20040;-70
2022/03/19 05:46:42;;;;;;;14.82;4.25;;;;;;;;;;5073002;28;20379;-70
2022/03/19 05:49:08;;;;;;;15.65;4.72;;;;;;;;;;5072957;28;20041;-71
2022/03/19 05:51:34;;;;;;;14.10;3.83;;;;;;;;;;5073766;28;20147;-70
2022/03/19 05:54:00;;;;;;;10.38;3.83;;;;;;;;;;5074291;28;20084;-70
2022/03/19 05:56:26;;;;;;;17.27;4.55;;;;;;;;;;5074489;28;20436;-70
2022/03/19 05:58:54;;;;;;;15.35;4.40;;;;;;;;;;5072390;28;20523;-70
2022/03/19 06:01:26;;;;;;;19.10;4.53;;;;;;;;;;5074299;28;20643;-70
2022/03/19 06:03:52;;;;;;;14.98;4.68;;;;;;;;;;5074373;28;20040;-70
2022/03/19 06:06:18;;;;;;;14.23;4.20;;;;;;;;;;5073789;28;20501;-70
2022/03/19 06:08:44;;;;;;;16.60;4.22;;;;;;;;;;5074202;28;20052;-70
2022/03/19 06:11:10;;;;;;;18.85;5.50;;;;;;;;;;5074171;28;20147;-70
2022/03/19 06:13:36;;;;;;;15.73;4.90;;;;;;;;;;5073567;28;20045;-70
2022/03/19 06:16:02;;;;;;;17.13;5.00;;;;;;;;;;5074152;28;20127;-70
2022/03/19 06:18:29;;;;;;;12.90;4.18;;;;;;;;;;5074153;28;20479;-70
2022/03/19 06:20:56;;;;;;;18.25;4.40;;;;;;;;;;5072051;28;20056;-70
2022/03/19 06:23:22;;;;;;;9.23;3.97;;;;;;;;;;5074035;28;20054;-70
2022/03/19 06:25:49;;;;;;;16.13;4.70;;;;;;;;;;5073802;28;20075;-70
2022/03/19 06:28:15;;;;;;;14.65;4.43;;;;;;;;;;5072602;28;20124;-70
2022/03/19 06:30:41;;;;;;;17.55;4.97;;;;;;;;;;5073289;28;20086;-70
2022/03/19 06:33:08;;;;;;;17.48;5.40;;;;;;;;;;5073577;28;20040;-70
2022/03/19 06:38:20;;;;;;;14.73;4.00;;;;;;;;;;5073523;28;20111;-70
2022/03/19 06:40:46;;;;;;;14.95;4.63;;;;;;;;;;5073597;28;20138;-70
2022/03/19 06:43:12;;;;;;;15.40;4.85;;;;;;;;;;5072939;28;20078;-70
2022/03/19 06:45:38;;;;;;;13.88;4.75;;;;;;;;;;5105782;28;20044;-70
2022/03/19 06:48:05;;;;;;;13.82;4.10;;;;;;;;;;5073376;28;20045;-70
2022/03/19 06:50:31;;;;;;;18.23;5.15;;;;;;;;;;5072646;28;20467;-70
2022/03/19 06:52:57;;;;;;;16.17;4.82;;;;;;;;;;5105726;28;20047;-70
2022/03/19 06:55:23;;;;;;;17.13;4.70;;;;;;;;;;5073290;28;20119;-71
2022/03/19 06:57:49;;;;;;;15.20;5.50;;;;;;;;;;5072343;28;20082;-70
2022/03/19 07:00:16;;;;;;;18.10;4.97;;;;;;;;;;5105688;28;20124;-70
2022/03/19 07:02:53;;;;;;;16.52;4.57;;;;;;;;;;5072684;28;20048;-70
2022/03/19 07:05:27;;;;;;;20.80;5.43;;;;;;;;;;5104599;28;20048;-70
2022/03/19 07:07:54;;;;;;;15.93;5.43;;;;;;;;;;5072829;28;20078;-70
2022/03/19 07:10:20;;;;;;;12.70;4.10;;;;;;;;;;5072561;28;20033;-70
2022/03/19 07:12:47;;;;;;;17.70;4.57;;;;;;;;;;5072349;28;20080;-70
2022/03/19 07:15:17;;;;;;;14.65;4.35;;;;;;;;;;5105254;28;20062;-70
2022/03/19 07:17:44;;;;;;;14.63;4.53;;;;;;;;;;5071325;28;20036;-70
2022/03/19 07:20:16;;;;;;;19.00;4.88;;;;;;;;;;5072145;28;20048;-70
2022/03/19 07:22:46;;;;;;;18.83;5.45;;;;;;;;;;5072237;28;20048;-70
2022/03/19 07:25:12;;;;;;;22.00;5.22;;;;;;;;;;5072488;28;20422;-70
2022/03/19 07:27:38;;;;;;;18.10;4.78;;;;;;;;;;5071614;28;20036;-70
2022/03/19 07:30:04;;;;;;;19.55;5.25;;;;;;;;;;5071916;28;20525;-70
2022/03/19 07:32:30;;;;;;;20.67;5.75;;;;;;;;;;5072339;28;20083;-70
2022/03/19 07:34:56;;;;;;;15.82;5.50;;;;;;;;;;5071744;28;20459;-70
2022/03/19 07:37:22;;;;;;;14.68;4.82;;;;;;;;;;5072339;28;20036;-70
2022/03/19 07:39:48;;;;;;;19.17;5.88;;;;;;;;;;5070721;28;20044;-70
2022/03/19 07:42:14;;;;;;;20.27;5.20;;;;;;;;;;5071765;28;20051;-70
2022/03/19 07:44:41;;;;;;;18.48;5.68;;;;;;;;;;5071066;28;20178;-70
2022/03/19 07:47:07;;;;;;;18.95;5.05;;;;;;;;;;5072237;28;20044;-70
2022/03/19 07:49:33;;;;;;;13.23;4.70;;;;;;;;;;5069934;28;20043;-70
2022/03/19 07:52:05;;;;;;;21.13;6.13;;;;;;;;;;5070591;28;20124;-70
2022/03/19 07:54:31;;;;;;;12.82;4.72;;;;;;;;;;5072174;28;20123;-70
2022/03/19 07:56:57;;;;;;;18.90;5.07;;;;;;;;;;5071364;28;20068;-70
2022/03/19 07:59:23;;;;;;;16.80;4.38;;;;;;;;;;5071854;28;20045;-70
2022/03/19 08:01:49;;;;;;;17.83;5.00;;;;;;;;;;5071621;28;20413;-70
2022/03/19 08:04:18;;;;;;;15.65;4.70;;;;;;;;;;5071285;28;20071;-70
2022/03/19 08:06:44;;;;;;;15.25;4.53;;;;;;;;;;5071787;28;20032;-70
2022/03/19 08:09:10;;;;;;;11.95;4.50;;;;;;;;;;5072030;28;20051;-70
2022/03/19 08:11:38;;;;;;;14.60;4.70;;;;;;;;;;5071289;28;20044;-70
2022/03/19 08:14:04;;;;;;;17.63;4.90;;;;;;;;;;5070600;28;20048;-70
2022/03/19 08:16:31;;;;;;;14.30;4.80;;;;;;;;;;5071862;28;20037;-70
2022/03/19 08:18:57;;;;;;;18.27;4.85;;;;;;;;;;5071021;28;20051;-70
2022/03/19 08:21:23;;;;;;;16.08;4.93;;;;;;;;;;5071671;28;20105;-71
2022/03/19 08:23:49;;;;;;;13.48;4.75;;;;;;;;;;5071689;28;20040;-71
2022/03/19 08:26:15;;;;;;;11.35;4.30;;;;;;;;;;5070894;28;20051;-71
2022/03/19 08:28:41;;;;;;;16.88;4.68;;;;;;;;;;5071503;28;20383;-71
2022/03/19 08:31:07;;;;;;;15.05;4.78;;;;;;;;;;5071461;28;20053;-70
2022/03/19 08:33:34;;;;;;;16.27;4.43;;;;;;;;;;5071026;28;20090;-70
2022/03/19 08:36:00;;;;;;;19.20;4.15;;;;;;;;;;5071186;28;20078;-70
2022/03/19 08:41:10;;;;;;;18.48;4.97;;;;;;;;;;5070937;28;20482;-70
2022/03/19 08:43:37;;;;;;;12.80;4.43;;;;;;;;;;5071720;28;20118;-70
2022/03/19 08:46:03;;;;;;;13.38;4.25;;;;;;;;;;5071491;28;20068;-70
2022/03/19 08:48:29;;;;;;;16.90;4.57;;;;;;;;;;5103218;28;20041;-70
2022/03/19 08:51:39;;;;;;;11.40;3.45;;;;;;;;;;5071124;28;20052;-71
2022/03/19 08:53:41;;;;;;;16.55;3.70;;;;;;;;;;5071029;28;20071;-71
2022/03/19 08:56:07;;;;;;;15.73;4.35;;;;;;;;;;5070723;28;20109;-71
2022/03/19 08:58:33;;;;;;;15.35;3.60;;;;;;;;;;5071322;28;20477;-71
2022/03/19 09:00:59;;;;;;;11.43;3.35;;;;;;;;;;5071436;28;20044;-71
2022/03/19 09:03:26;;;;;;;16.45;3.60;;;;;;;;;;5070539;28;20102;-71
2022/03/19 09:05:52;;;;;;;22.10;4.28;;;;;;;;;;5071292;28;20048;-71
2022/03/19 09:08:18;;;;;;;12.98;3.88;;;;;;;;;;5103576;28;20052;-71
2022/03/19 09:10:44;;;;;;;14.85;3.47;;;;;;;;;;5070467;28;20045;-71
2022/03/19 09:13:11;;;;;;;12.27;3.03;;;;;;;;;;5073159;28;20144;-71
2022/03/19 09:15:38;;;;;;;11.90;3.10;;;;;;;;;;5074944;28;20052;-71
2022/03/19 09:18:05;;;;;;;9.68;3.13;;;;;;;;;;5106702;28;20131;-71
2022/03/19 09:20:32;;;;;;;13.48;3.45;;;;;;;;;;5074982;28;20136;-71
2022/03/19 09:22:58;;;;;;;11.60;4.13;;;;;;;;;;5075064;28;20043;-71
2022/03/19 09:25:24;;;;;;;11.25;2.90;;;;;;;;;;5072222;28;20044;-71
2022/03/19 09:27:50;;;;;;;14.05;3.20;;;;;;;;;;5054355;28;20056;-71
2022/03/19 09:30:16;;;;;;;13.32;2.97;;;;;;;;;;5054316;28;20132;-71
2022/03/19 09:32:42;;;;;;;9.00;3.17;;;;;;;;;;5054200;28;20125;-71
2022/03/19 09:35:08;;;;;;;13.65;2.83;;;;;;;;;;5054778;28;20045;-71
2022/03/19 09:37:35;;;;;;;8.63;2.88;;;;;;;;;;5054566;28;20037;-71
2022/03/19 09:40:01;;;;;;;10.93;2.67;;;;;;;;;;5053648;28;20047;-71
2022/03/19 09:42:28;;;;;;;14.20;3.42;;;;;;;;;;5054668;28;20041;-71
2022/03/19 09:44:54;;;;;;;8.90;2.60;;;;;;;;;;5054195;28;20048;-71
2022/03/19 09:47:20;;;;;;;12.73;3.28;;;;;;;;;;5053691;28;20036;-71
2022/03/19 09:49:46;;;;;;;10.30;3.10;;;;;;;;;;5054068;28;20456;-71
2022/03/19 09:52:13;;;;;;;12.07;3.67;;;;;;;;;;5054152;28;20053;-71
2022/03/19 09:54:39;;;;;;;10.55;2.70;;;;;;;;;;5053551;28;20079;-71
2022/03/19 09:57:06;;;;;;;9.02;3.03;;;;;;;;;;5054284;28;20037;-71
2022/03/19 09:59:36;;;;;;;13.00;3.08;;;;;;;;;;5052761;28;20036;-71
2022/03/19 10:02:04;;;;;;;12.15;2.85;;;;;;;;;;5053278;28;20076;-71
2022/03/19 10:04:31;;;;;;;13.50;2.75;;;;;;;;;;5054135;28;20041;-71
2022/03/19 10:09:46;;;;;;;9.32;2.65;;;;;;;;;;5085580;28;20049;-71
2022/03/19 10:12:14;;;;;;;10.27;2.60;;;;;;;;;;5054149;28;20059;-71
2022/03/19 10:14:40;;;;;;;9.43;2.17;;;;;;;;;;5052841;28;20094;-71
2022/03/19 10:17:06;;;;;;;9.93;2.30;;;;;;;;;;5051825;28;20052;-71
2022/03/19 10:19:32;;;;;;;10.45;2.70;;;;;;;;;;5052267;28;20040;-71
2022/03/19 10:22:11;;;;;;;6.88;2.25;;;;;;;;;;5054019;28;20090;-71
2022/03/19 10:24:37;;;;;;;6.45;2.20;;;;;;;;;;5051595;28;20045;-71
2022/03/19 10:27:03;;;;;;;8.25;2.42;;;;;;;;;;5067110;28;20048;-71
2022/03/19 10:29:33;;;;;;;13.73;2.80;;;;;;;;;;5073478;28;20068;-71
2022/03/19 10:32:00;;;;;;;9.00;2.80;;;;;;;;;;5105767;28;20552;-71
2022/03/19 10:34:26;;;;;;;5.95;1.98;;;;;;;;;;5073642;28;20467;-71
2022/03/19 10:36:52;;;;;;;8.57;2.45;;;;;;;;;;5105781;28;20647;-71
2022/03/19 10:39:19;;;;;;;8.30;2.00;;;;;;;;;;5072827;28;20123;-71
2022/03/19 10:41:46;;;;;;;7.10;1.98;;;;;;;;;;5073574;28;20047;-71
2022/03/19 10:44:19;;;;;;;7.60;2.60;;;;;;;;;;5073638;28;20467;-71
2022/03/19 10:46:49;;;;;;;9.15;2.03;;;;;;;;;;5072543;28;20044;-71
2022/03/19 10:49:15;;;;;;;8.93;2.50;;;;;;;;;;5073228;28;20044;-71
2022/03/19 10:51:45;;;;;;;8.30;2.10;;;;;;;;;;5073045;28;20033;-71
2022/03/19 10:54:12;;;;;;;6.32;1.98;;;;;;;;;;5072597;28;20072;-71
2022/03/19 10:56:39;;;;;;;9.20;2.75;;;;;;;;;;5071457;28;20080;-71
2022/03/19 10:59:05;;;;;;;12.25;2.40;;;;;;;;;;5073243;28;20047;-71
2022/03/19 11:01:32;;;;;;;5.50;1.92;;;;;;;;;;5104819;28;20040;-71
2022/03/19 11:04:00;;;;;;;5.50;1.77;;;;;;;;;;5073217;28;20037;-71
2022/03/19 11:06:29;;;;;;;5.15;1.52;;;;;;;;;;5073217;28;20547;-71
2022/03/19 11:08:55;;;;;;;5.90;1.73;;;;;;;;;;5072499;28;20475;-71
2022/03/19 11:11:32;;;;;;;7.20;1.92;;;;;;;;;;5072686;28;20131;-71
2022/03/19 11:13:59;;;;;;;6.50;1.85;;;;;;;;;;5072785;28;20056;-71
2022/03/19 11:16:26;;;;;;;7.28;1.88;;;;;;;;;;5072087;28;20044;-71
2022/03/19 11:18:53;;;;;;;7.10;2.08;;;;;;;;;;5072945;28;20039;-71
2022/03/19 11:21:20;;;;;;;7.28;2.22;;;;;;;;;;5072731;28;20067;-71
2022/03/19 11:24:12;;;;;;;7.30;1.77;;;;;;;;;;5071934;28;20037;-71
2022/03/19 11:26:38;;;;;;;6.72;1.92;;;;;;;;;;5058507;28;20143;-71
2022/03/19 11:29:06;;;;;;;3.97;1.80;;;;;;;;;;5052753;28;20048;-71
2022/03/19 11:31:32;;;;;;;8.52;1.80;;;;;;;;;;5052172;28;20533;-71
2022/03/19 11:34:03;;;;;;;4.88;1.40;;;;;;;;;;5051258;28;20041;-71
2022/03/19 11:36:30;;;;;;;6.70;1.30;;;;;;;;;;5050156;28;20128;-71
2022/03/19 11:38:56;;;;;;;4.15;1.30;;;;;;;;;;5050325;28;20045;-71
2022/03/19 11:41:27;;;;;;;5.90;1.70;;;;;;;;;;5052166;28;20045;-71
2022/03/19 11:44:12;;;;;;;3.40;1.13;;;;;;;;;;5052147;28;20045;-71
2022/03/19 11:46:57;;;;;;;5.45;1.40;;;;;;;;;;5051265;28;20458;-71
2022/03/19 11:49:42;;;;;;;5.13;1.55;;;;;;;;;;5052190;28;20052;-71
2022/03/19 11:52:08;;;;;;;4.22;1.55;;;;;;;;;;5050595;28;20102;-71
2022/03/19 11:54:54;;;;;;;6.20;1.70;;;;;;;;;;5051113;28;20192;-71
2022/03/19 11:57:20;;;;;;;7.82;1.88;;;;;;;;;;5052002;28;20795;-71
2022/03/19 11:59:47;;;;;;;4.97;1.50;;;;;;;;;;5051645;28;20102;-71
2022/03/19 12:02:14;;;;;;;4.93;1.98;;;;;;;;;;5051264;28;20190;-71
2022/03/19 12:04:54;;;;;;;5.18;1.58;;;;;;;;;;5051901;28;20041;-71
2022/03/19 12:07:39;;;;;;;4.72;1.55;;;;;;;;;;5050250;28;20458;-71
2022/03/19 12:10:16;;;;;;;6.45;1.55;;;;;;;;;;5051626;28;20480;-71
2022/03/19 12:12:42;;;;;;;5.57;1.70;;;;;;;;;;5050279;28;20450;-71
2022/03/19 12:15:27;;;;;;;7.30;1.73;;;;;;;;;;5051296;28;20123;-71
2022/03/19 12:17:53;;;;;;;4.47;1.40;;;;;;;;;;5051382;28;20083;-71
2022/03/19 12:20:19;;;;;;;3.25;1.17;;;;;;;;;;5051281;28;20044;-72
2022/03/19 12:22:45;;;;;;;5.38;1.20;;;;;;;;;;5050916;28;20120;-72
2022/03/19 12:25:18;;;;;;;2.33;1.10;;;;;;;;;;5051718;28;20041;-72
2022/03/19 12:27:51;;;;;;;3.97;1.10;;;;;;;;;;5051506;28;20074;-72
2022/03/19 12:30:18;;;;;;;4.43;1.05;;;;;;;;;;5050680;28;20092;-72
2022/03/19 12:32:49;;;;;;;4.00;1.33;;;;;;;;;;5050062;28;20045;-72
2022/03/19 12:35:15;;;;;;;4.57;1.30;;;;;;;;;;5051651;28;20029;-72
2022/03/19 12:37:48;;;;;;;4.30;1.15;;;;;;;;;;5050883;28;20049;-72
2022/03/19 12:40:17;;;;;;;3.50;1.27;;;;;;;;;;5049877;28;20052;-72
2022/03/19 12:42:49;;;;;;;2.22;0.98;;;;;;;;;;5051480;28;20143;-72
2022/03/19 12:45:15;;;;;;;3.25;1.10;;;;;;;;;;5069124;28;20024;-72
2022/03/19 12:47:41;;;;;;;4.18;1.23;;;;;;;;;;5079521;28;20083;-72
2022/03/19 12:50:08;;;;;;;5.07;1.48;;;;;;;;;;5089650;28;20044;-72
2022/03/19 12:52:34;;;;;;;2.45;1.00;;;;;;;;;;5083097;28;20039;-72
2022/03/19 12:55:00;;;;;;;3.22;1.08;;;;;;;;;;5078231;28;20032;-72
2022/03/19 12:57:27;;;;;;;3.22;0.90;;;;;;;;;;5075782;28;20113;-72
2022/03/19 12:59:58;;;;;;;3.83;1.00;;;;;;;;;;5073137;28;20047;-72
2022/03/19 13:02:25;;;;;;;4.00;1.00;;;;;;;;;;5076304;28;20097;-72
2022/03/19 13:04:52;;;;;;;4.45;1.20;;;;;;;;;;5073153;28;20087;-72
2022/03/19 13:07:18;;;;;;;5.18;1.38;;;;;;;;;;5072560;28;20105;-72
2022/03/19 13:09:45;;;;;;;2.83;1.00;;;;;;;;;;5076096;28;20402;-72
2022/03/19 13:12:16;;;;;;;2.45;1.20;;;;;;;;;;5085742;28;20037;-72
2022/03/19 13:14:47;;;;;;;4.35;1.10;;;;;;;;;;5084120;28;20064;-72
2022/03/19 13:17:15;;;;;;;3.85;1.13;;;;;;;;;;5092012;28;20370;-72
2022/03/19 13:19:41;;;;;;;1.88;1.13;;;;;;;;;;5095141;28;20048;-72
2022/03/19 13:22:10;;;;;;;3.80;1.10;;;;;;;;;;5094750;28;20558;-72
2022/03/19 13:24:37;;;;;;;6.47;1.88;;;;;;;;;;5095244;28;20043;-72
2022/03/19 13:27:04;;;;;;;3.30;1.15;;;;;;;;;;5079533;28;20041;-72
2022/03/19 13:29:35;;;;;;;4.75;1.58;;;;;;;;;;5073955;28;20084;-72
2022/03/19 13:32:03;;;;;;;7.07;1.50;;;;;;;;;;5074817;28;20051;-72
2022/03/19 13:34:29;;;;;;;3.47;1.25;;;;;;;;;;5107422;28;20048;-72
2022/03/19 13:36:57;;;;;;;3.22;1.30;;;;;;;;;;5073956;28;20040;-72
2022/03/19 13:39:24;;;;;;;4.25;1.27;;;;;;;;;;5107127;28;20070;-73
2022/03/19 13:41:51;;;;;;;3.35;1.13;;;;;;;;;;5074600;28;20052;-73
2022/03/19 13:44:27;;;;;;;5.35;1.50;;;;;;;;;;5106517;28;20095;-73
2022/03/19 13:47:03;;;;;;;3.75;1.17;;;;;;;;;;5074213;28;20483;-73
2022/03/19 13:49:29;;;;;;;2.85;1.10;;;;;;;;;;5074315;28;20467;-73
2022/03/19 13:51:56;;;;;;;4.68;1.00;;;;;;;;;;5073646;28;20682;-73
2022/03/19 13:54:22;;;;;;;3.17;0.95;;;;;;;;;;5107056;28;20124;-73
2022/03/19 13:56:52;;;;;;;3.25;0.90;;;;;;;;;;5106654;28;20045;-73
2022/03/19 13:59:31;;;;;;;4.35;1.48;;;;;;;;;;5071427;28;20040;-73
2022/03/19 14:01:59;;;;;;;5.18;1.27;;;;;;;;;;5074455;28;20523;-73
2022/03/19 14:04:26;;;;;;;6.70;1.30;;;;;;;;;;5074286;28;20040;-73
2022/03/19 14:06:53;;;;;;;4.35;1.23;;;;;;;;;;5073445;28;20074;-73
2022/03/19 14:09:20;;;;;;;5.10;1.30;;;;;;;;;;5106515;28;20055;-73
2022/03/19 14:11:48;;;;;;;5.35;1.38;;;;;;;;;;5106582;28;20391;-73
2022/03/19 14:14:18;;;;;;;4.10;1.30;;;;;;;;;;5106094;28;20037;-73
2022/03/19 14:16:54;;;;;;;6.07;1.65;;;;;;;;;;5106552;28;20093;-73
2022/03/19 14:19:22;;;;;;;2.85;1.15;;;;;;;;;;5106355;28;20048;-73
2022/03/19 14:21:48;;;;;;;5.40;1.10;;;;;;;;;;5105610;28;20044;-71
2022/03/19 14:24:14;;;;;;;4.90;1.33;;;;;;;;;;5074244;28;20528;-71
2022/03/19 14:26:40;;;;;;;5.10;1.38;;;;;;;;;;5097600;28;20052;-71
2022/03/19 14:29:06;;;;;;;5.57;1.45;;;;;;;;;;5073096;28;20037;-71
2022/03/19 14:31:32;;;;;;;2.83;1.20;;;;;;;;;;5053775;28;20446;-71
2022/03/19 14:33:58;;;;;;;7.00;1.48;;;;;;;;;;5053936;28;20037;-71
2022/03/19 14:36:26;;;;;;;6.80;1.27;;;;;;;;;;5052294;28;20559;-71
2022/03/19 14:38:52;;;;;;;3.38;1.23;;;;;;;;;;5053911;28;20041;-71
2022/03/19 14:41:19;;;;;;;5.50;1.40;;;;;;;;;;5053066;28;20478;-72
2022/03/19 14:43:50;;;;;;;6.50;1.52;;;;;;;;;;5051662;28;20056;-73
2022/03/19 14:46:18;;;;;;;3.72;1.10;;;;;;;;;;5053826;28;20631;-73
2022/03/19 14:48:45;;;;;;;4.13;1.30;;;;;;;;;;5053507;28;20045;-73
2022/03/19 14:51:12;;;;;;;5.20;1.50;;;;;;;;;;5052589;28;20041;-73